sensor_id;sensor_type;location;lat;lon;timestamp;pressure;altitude;pressure_sealevel;temperature;humidity
12781;BME280;6454;43.304;24.344;2023-05-20T00:01:32;100697.63;;;13.11;100.00
12781;BME280;6454;43.304;24.344;2023-05-20T00:03:59;100692.84;;;13.22;99.85
12781;BME280;6454;43.304;24.344;2023-05-20T00:06:26;100688.91;;;13.09;98.15
12781;BME280;6454;43.304;24.344;2023-05-20T00:08:52;100679.44;;;13.02;100.00
12781;BME280;6454;43.304;24.344;2023-05-20T00:11:20;100676.69;;;13.07;99.13
12781;BME280;6454;43.304;24.344;2023-05-20T00:13:46;100676.25;;;12.94;99.69
12781;BME280;6454;43.304;24.344;2023-05-20T00:16:14;100666.69;;;12.97;99.10
12781;BME280;6454;43.304;24.344;2023-05-20T00:18:41;100675.31;;;13.04;96.67
12781;BME280;6454;43.304;24.344;2023-05-20T00:21:08;100663.41;;;13.00;97.00
12781;BME280;6454;43.304;24.344;2023-05-20T00:23:35;100665.16;;;12.91;98.47
12781;BME280;6454;43.304;24.344;2023-05-20T00:26:02;100668.44;;;12.88;99.00
12781;BME280;6454;43.304;24.344;2023-05-20T00:28:29;100663.25;;;12.86;99.87
12781;BME280;6454;43.304;24.344;2023-05-20T00:30:56;100673.38;;;12.86;99.65
12781;BME280;6454;43.304;24.344;2023-05-20T00:33:24;100671.16;;;12.88;99.66
12781;BME280;6454;43.304;24.344;2023-05-20T00:35:51;100675.38;;;12.99;98.62
12781;BME280;6454;43.304;24.344;2023-05-20T00:38:17;100670.25;;;12.98;97.17
12781;BME280;6454;43.304;24.344;2023-05-20T00:40:44;100671.97;;;12.88;97.93
12781;BME280;6454;43.304;24.344;2023-05-20T00:43:11;100669.88;;;12.80;98.27
12781;BME280;6454;43.304;24.344;2023-05-20T00:45:38;100667.47;;;12.74;98.11
12781;BME280;6454;43.304;24.344;2023-05-20T00:48:05;100670.00;;;12.70;98.84
12781;BME280;6454;43.304;24.344;2023-05-20T00:50:34;100659.09;;;12.70;98.96
12781;BME280;6454;43.304;24.344;2023-05-20T00:53:01;100683.03;;;12.73;98.13
12781;BME280;6454;43.304;24.344;2023-05-20T00:55:28;100673.19;;;12.77;96.65
12781;BME280;6454;43.304;24.344;2023-05-20T00:57:55;100670.16;;;12.79;97.14
12781;BME280;6454;43.304;24.344;2023-05-20T01:00:21;100665.00;;;12.77;96.38
12781;BME280;6454;43.304;24.344;2023-05-20T01:02:48;100665.13;;;12.67;96.60
12781;BME280;6454;43.304;24.344;2023-05-20T01:05:15;100670.66;;;12.57;98.76
12781;BME280;6454;43.304;24.344;2023-05-20T01:07:43;100668.44;;;12.59;98.38
12781;BME280;6454;43.304;24.344;2023-05-20T01:10:10;100665.00;;;12.54;97.46
12781;BME280;6454;43.304;24.344;2023-05-20T01:12:39;100661.50;;;12.48;97.89
12781;BME280;6454;43.304;24.344;2023-05-20T01:15:09;100657.19;;;12.42;98.78
12781;BME280;6454;43.304;24.344;2023-05-20T01:17:38;100669.72;;;12.43;99.33
12781;BME280;6454;43.304;24.344;2023-05-20T01:20:10;100668.38;;;12.41;99.32
12781;BME280;6454;43.304;24.344;2023-05-20T01:22:46;100663.16;;;12.44;97.73
12781;BME280;6454;43.304;24.344;2023-05-20T01:25:12;100665.56;;;12.51;96.71
12781;BME280;6454;43.304;24.344;2023-05-20T01:27:39;100662.59;;;12.47;96.41
12781;BME280;6454;43.304;24.344;2023-05-20T01:30:07;100636.84;;;12.35;97.54
12781;BME280;6454;43.304;24.344;2023-05-20T01:32:37;100644.88;;;12.21;99.98
12781;BME280;6454;43.304;24.344;2023-05-20T01:35:05;100628.72;;;12.01;100.00
12781;BME280;6454;43.304;24.344;2023-05-20T01:37:34;100652.75;;;12.22;99.15
12781;BME280;6454;43.304;24.344;2023-05-20T01:40:04;100656.19;;;12.33;98.08
12781;BME280;6454;43.304;24.344;2023-05-20T01:42:34;100655.41;;;12.27;97.83
12781;BME280;6454;43.304;24.344;2023-05-20T01:45:01;100661.97;;;12.21;99.09
12781;BME280;6454;43.304;24.344;2023-05-20T01:47:28;100654.38;;;12.23;99.23
12781;BME280;6454;43.304;24.344;2023-05-20T01:49:55;100658.44;;;12.26;99.32
12781;BME280;6454;43.304;24.344;2023-05-20T01:52:22;100637.38;;;12.08;98.38
12781;BME280;6454;43.304;24.344;2023-05-20T01:54:49;100657.63;;;12.25;97.35
12781;BME280;6454;43.304;24.344;2023-05-20T01:57:18;100659.50;;;12.25;97.24
12781;BME280;6454;43.304;24.344;2023-05-20T01:59:45;100662.63;;;12.13;98.39
12781;BME280;6454;43.304;24.344;2023-05-20T02:02:12;100652.06;;;12.02;98.16
12781;BME280;6454;43.304;24.344;2023-05-20T02:04:38;100653.38;;;12.09;98.80
12781;BME280;6454;43.304;24.344;2023-05-20T02:07:06;100662.34;;;12.10;97.86
12781;BME280;6454;43.304;24.344;2023-05-20T02:09:33;100647.75;;;12.01;97.25
12781;BME280;6454;43.304;24.344;2023-05-20T02:12:00;100651.81;;;12.03;96.30
12781;BME280;6454;43.304;24.344;2023-05-20T02:14:28;100656.41;;;12.08;95.63
12781;BME280;6454;43.304;24.344;2023-05-20T02:16:55;100655.44;;;11.94;97.62
12781;BME280;6454;43.304;24.344;2023-05-20T02:19:22;100651.09;;;11.88;99.06
12781;BME280;6454;43.304;24.344;2023-05-20T02:21:49;100648.66;;;11.91;98.34
12781;BME280;6454;43.304;24.344;2023-05-20T02:24:16;100655.44;;;11.94;97.02
12781;BME280;6454;43.304;24.344;2023-05-20T02:26:45;100658.41;;;11.92;95.96
12781;BME280;6454;43.304;24.344;2023-05-20T02:29:13;100653.31;;;11.86;96.70
12781;BME280;6454;43.304;24.344;2023-05-20T02:31:41;100650.63;;;11.81;97.73
12781;BME280;6454;43.304;24.344;2023-05-20T02:34:08;100657.06;;;11.90;97.11
12781;BME280;6454;43.304;24.344;2023-05-20T02:36:35;100660.97;;;11.79;98.00
12781;BME280;6454;43.304;24.344;2023-05-20T02:39:02;100668.00;;;11.80;98.58
12781;BME280;6454;43.304;24.344;2023-05-20T02:41:29;100671.22;;;11.87;96.46
12781;BME280;6454;43.304;24.344;2023-05-20T02:43:56;100673.41;;;11.85;96.11
12781;BME280;6454;43.304;24.344;2023-05-20T02:46:22;100662.59;;;11.75;97.17
12781;BME280;6454;43.304;24.344;2023-05-20T02:48:50;100668.88;;;11.70;98.09
12781;BME280;6454;43.304;24.344;2023-05-20T02:51:17;100666.16;;;11.65;98.68
12781;BME280;6454;43.304;24.344;2023-05-20T02:53:45;100667.34;;;11.54;100.00
12781;BME280;6454;43.304;24.344;2023-05-20T02:56:12;100663.25;;;11.56;99.40
12781;BME280;6454;43.304;24.344;2023-05-20T02:58:39;100671.59;;;11.65;98.11
12781;BME280;6454;43.304;24.344;2023-05-20T03:01:05;100642.34;;;11.47;96.36
12781;BME280;6454;43.304;24.344;2023-05-20T03:03:32;100677.88;;;11.60;97.52
12781;BME280;6454;43.304;24.344;2023-05-20T03:06:00;100673.50;;;11.64;97.74
12781;BME280;6454;43.304;24.344;2023-05-20T03:08:27;100675.97;;;11.61;98.79
12781;BME280;6454;43.304;24.344;2023-05-20T03:10:54;100672.44;;;11.71;96.92
12781;BME280;6454;43.304;24.344;2023-05-20T03:13:21;100667.84;;;11.61;96.74
12781;BME280;6454;43.304;24.344;2023-05-20T03:15:47;100674.91;;;11.57;97.29
12781;BME280;6454;43.304;24.344;2023-05-20T03:18:14;100669.47;;;11.57;98.65
12781;BME280;6454;43.304;24.344;2023-05-20T03:20:41;100666.72;;;11.62;98.77
12781;BME280;6454;43.304;24.344;2023-05-20T03:23:09;100673.28;;;11.61;99.31
12781;BME280;6454;43.304;24.344;2023-05-20T03:25:36;100671.06;;;11.68;98.86
12781;BME280;6454;43.304;24.344;2023-05-20T03:28:03;100674.84;;;11.72;97.48
12781;BME280;6454;43.304;24.344;2023-05-20T03:30:31;100666.69;;;11.72;97.89
12781;BME280;6454;43.304;24.344;2023-05-20T03:32:58;100677.03;;;11.70;98.67
12781;BME280;6454;43.304;24.344;2023-05-20T03:35:27;100672.44;;;11.71;99.99
12781;BME280;6454;43.304;24.344;2023-05-20T03:37:54;100682.16;;;11.77;100.00
12781;BME280;6454;43.304;24.344;2023-05-20T03:40:22;100681.03;;;11.83;100.00
12781;BME280;6454;43.304;24.344;2023-05-20T03:42:49;100677.47;;;11.87;100.00
12781;BME280;6454;43.304;24.344;2023-05-20T03:45:16;100673.34;;;11.95;100.00
12781;BME280;6454;43.304;24.344;2023-05-20T03:47:43;100670.88;;;11.98;100.00
12781;BME280;6454;43.304;24.344;2023-05-20T03:50:10;100671.38;;;12.05;100.00
12781;BME280;6454;43.304;24.344;2023-05-20T03:52:37;100669.47;;;12.06;100.00
12781;BME280;6454;43.304;24.344;2023-05-20T03:55:05;100661.50;;;12.14;100.00
12781;BME280;6454;43.304;24.344;2023-05-20T03:57:34;100659.94;;;12.37;100.00
12781;BME280;6454;43.304;24.344;2023-05-20T04:00:01;100664.75;;;12.50;100.00
12781;BME280;6454;43.304;24.344;2023-05-20T04:02:31;100665.72;;;12.59;100.00
12781;BME280;6454;43.304;24.344;2023-05-20T04:04:57;100665.94;;;12.68;100.00
12781;BME280;6454;43.304;24.344;2023-05-20T04:07:26;100675.59;;;12.79;100.00
12781;BME280;6454;43.304;24.344;2023-05-20T04:09:54;100670.59;;;12.91;100.00
12781;BME280;6454;43.304;24.344;2023-05-20T04:12:21;100677.97;;;13.14;100.00
12781;BME280;6454;43.304;24.344;2023-05-20T04:14:51;100668.47;;;13.35;100.00
12781;BME280;6454;43.304;24.344;2023-05-20T04:17:19;100673.91;;;13.54;100.00
12781;BME280;6454;43.304;24.344;2023-05-20T04:19:46;100674.97;;;13.58;100.00
12781;BME280;6454;43.304;24.344;2023-05-20T04:22:13;100671.00;;;13.69;100.00
12781;BME280;6454;43.304;24.344;2023-05-20T04:24:40;100675.94;;;13.86;100.00
12781;BME280;6454;43.304;24.344;2023-05-20T04:27:07;100662.34;;;13.99;100.00
12781;BME280;6454;43.304;24.344;2023-05-20T04:29:33;100658.88;;;14.12;100.00
12781;BME280;6454;43.304;24.344;2023-05-20T04:32:02;100659.72;;;14.27;100.00
12781;BME280;6454;43.304;24.344;2023-05-20T04:34:29;100654.13;;;14.37;100.00
12781;BME280;6454;43.304;24.344;2023-05-20T04:36:59;100604.25;;;13.99;100.00
12781;BME280;6454;43.304;24.344;2023-05-20T04:39:26;100669.75;;;14.50;100.00
12781;BME280;6454;43.304;24.344;2023-05-20T04:41:53;100672.22;;;14.65;100.00
12781;BME280;6454;43.304;24.344;2023-05-20T04:44:20;100687.81;;;14.78;100.00
12781;BME280;6454;43.304;24.344;2023-05-20T04:46:47;100687.22;;;14.95;100.00
12781;BME280;6454;43.304;24.344;2023-05-20T04:49:15;100698.06;;;15.00;100.00
12781;BME280;6454;43.304;24.344;2023-05-20T04:51:42;100689.94;;;15.08;100.00
12781;BME280;6454;43.304;24.344;2023-05-20T04:54:09;100681.06;;;15.16;100.00
12781;BME280;6454;43.304;24.344;2023-05-20T04:56:36;100689.16;;;15.21;100.00
12781;BME280;6454;43.304;24.344;2023-05-20T04:59:02;100689.75;;;15.32;100.00
12781;BME280;6454;43.304;24.344;2023-05-20T05:01:29;100689.56;;;15.42;100.00
12781;BME280;6454;43.304;24.344;2023-05-20T05:03:56;100690.97;;;15.53;100.00
12781;BME280;6454;43.304;24.344;2023-05-20T05:06:24;100701.03;;;15.58;100.00
12781;BME280;6454;43.304;24.344;2023-05-20T05:08:51;100700.09;;;15.62;100.00
12781;BME280;6454;43.304;24.344;2023-05-20T05:11:18;100700.47;;;15.69;100.00
12781;BME280;6454;43.304;24.344;2023-05-20T05:13:45;100699.06;;;15.72;100.00
12781;BME280;6454;43.304;24.344;2023-05-20T05:16:12;100690.09;;;15.58;100.00
12781;BME280;6454;43.304;24.344;2023-05-20T05:18:39;100715.13;;;15.87;100.00
12781;BME280;6454;43.304;24.344;2023-05-20T05:21:05;100722.69;;;16.03;100.00
12781;BME280;6454;43.304;24.344;2023-05-20T05:23:34;100715.66;;;16.11;100.00
12781;BME280;6454;43.304;24.344;2023-05-20T05:26:00;100717.19;;;16.17;100.00
12781;BME280;6454;43.304;24.344;2023-05-20T05:28:27;100712.91;;;16.25;100.00
12781;BME280;6454;43.304;24.344;2023-05-20T05:30:54;100706.69;;;16.33;100.00
12781;BME280;6454;43.304;24.344;2023-05-20T05:33:21;100708.28;;;16.34;100.00
12781;BME280;6454;43.304;24.344;2023-05-20T05:35:49;100700.75;;;16.39;100.00
12781;BME280;6454;43.304;24.344;2023-05-20T05:38:16;100642.13;;;16.18;100.00
12781;BME280;6454;43.304;24.344;2023-05-20T05:40:44;100700.16;;;16.64;100.00
12781;BME280;6454;43.304;24.344;2023-05-20T05:43:11;100703.13;;;16.77;99.92
12781;BME280;6454;43.304;24.344;2023-05-20T05:45:38;100706.22;;;16.84;100.00
12781;BME280;6454;43.304;24.344;2023-05-20T05:48:06;100702.59;;;16.97;100.00
12781;BME280;6454;43.304;24.344;2023-05-20T05:50:33;100705.88;;;17.07;100.00
12781;BME280;6454;43.304;24.344;2023-05-20T05:53:00;100705.25;;;17.19;100.00
12781;BME280;6454;43.304;24.344;2023-05-20T05:55:28;100675.91;;;17.19;100.00
12781;BME280;6454;43.304;24.344;2023-05-20T05:57:56;100699.38;;;17.51;100.00
12781;BME280;6454;43.304;24.344;2023-05-20T06:00:23;100699.13;;;17.61;99.09
12781;BME280;6454;43.304;24.344;2023-05-20T06:02:49;100699.47;;;17.68;96.01
12781;BME280;6454;43.304;24.344;2023-05-20T06:05:16;100699.78;;;17.67;94.12
12781;BME280;6454;43.304;24.344;2023-05-20T06:07:43;100692.06;;;17.77;97.56
12781;BME280;6454;43.304;24.344;2023-05-20T06:10:10;100695.59;;;17.95;96.76
12781;BME280;6454;43.304;24.344;2023-05-20T06:12:37;100691.25;;;17.94;94.82
12781;BME280;6454;43.304;24.344;2023-05-20T06:15:06;100688.50;;;18.02;93.17
12781;BME280;6454;43.304;24.344;2023-05-20T06:17:33;100692.06;;;18.12;91.88
12781;BME280;6454;43.304;24.344;2023-05-20T06:20:00;100656.84;;;18.05;90.15
12781;BME280;6454;43.304;24.344;2023-05-20T06:22:27;100709.34;;;18.38;90.48
12781;BME280;6454;43.304;24.344;2023-05-20T06:24:55;100702.41;;;18.49;88.61
12781;BME280;6454;43.304;24.344;2023-05-20T06:27:25;100697.69;;;18.58;86.85
12781;BME280;6454;43.304;24.344;2023-05-20T06:29:52;100697.53;;;18.63;84.16
12781;BME280;6454;43.304;24.344;2023-05-20T06:32:20;100701.09;;;18.72;82.74
12781;BME280;6454;43.304;24.344;2023-05-20T06:34:47;100699.25;;;18.85;84.23
12781;BME280;6454;43.304;24.344;2023-05-20T06:37:13;100701.03;;;18.89;83.39
12781;BME280;6454;43.304;24.344;2023-05-20T06:39:40;100702.75;;;19.02;84.44
12781;BME280;6454;43.304;24.344;2023-05-20T06:42:07;100694.63;;;19.14;84.31
12781;BME280;6454;43.304;24.344;2023-05-20T06:44:34;100696.69;;;19.26;84.34
12781;BME280;6454;43.304;24.344;2023-05-20T06:47:01;100690.81;;;19.36;83.69
12781;BME280;6454;43.304;24.344;2023-05-20T06:49:29;100693.06;;;19.43;83.11
12781;BME280;6454;43.304;24.344;2023-05-20T06:51:55;100696.19;;;19.62;83.36
12781;BME280;6454;43.304;24.344;2023-05-20T06:54:22;100696.75;;;19.76;83.60
12781;BME280;6454;43.304;24.344;2023-05-20T06:56:49;100691.31;;;19.88;82.82
12781;BME280;6454;43.304;24.344;2023-05-20T06:59:16;100698.16;;;20.03;83.21
12781;BME280;6454;43.304;24.344;2023-05-20T07:01:42;100678.69;;;20.08;82.33
12781;BME280;6454;43.304;24.344;2023-05-20T07:04:09;100681.09;;;20.09;80.16
12781;BME280;6454;43.304;24.344;2023-05-20T07:06:37;100680.50;;;20.24;78.51
12781;BME280;6454;43.304;24.344;2023-05-20T07:09:04;100684.09;;;20.37;79.01
12781;BME280;6454;43.304;24.344;2023-05-20T07:11:31;100675.63;;;20.42;79.02
12781;BME280;6454;43.304;24.344;2023-05-20T07:13:58;100666.81;;;20.48;80.83
12781;BME280;6454;43.304;24.344;2023-05-20T07:16:24;100669.16;;;20.59;80.97
12781;BME280;6454;43.304;24.344;2023-05-20T07:18:51;100668.47;;;20.62;80.41
12781;BME280;6454;43.304;24.344;2023-05-20T07:21:18;100663.88;;;20.66;79.42
12781;BME280;6454;43.304;24.344;2023-05-20T07:23:46;100671.50;;;20.81;77.00
12781;BME280;6454;43.304;24.344;2023-05-20T07:26:13;100677.38;;;20.91;75.34
12781;BME280;6454;43.304;24.344;2023-05-20T07:28:40;100672.19;;;20.90;72.51
12781;BME280;6454;43.304;24.344;2023-05-20T07:31:08;100681.41;;;20.94;71.76
12781;BME280;6454;43.304;24.344;2023-05-20T07:33:35;100677.13;;;20.84;69.03
12781;BME280;6454;43.304;24.344;2023-05-20T07:36:03;100678.88;;;20.89;70.13
12781;BME280;6454;43.304;24.344;2023-05-20T07:38:30;100676.81;;;20.98;70.03
12781;BME280;6454;43.304;24.344;2023-05-20T07:40:58;100667.19;;;21.16;69.31
12781;BME280;6454;43.304;24.344;2023-05-20T07:43:25;100673.53;;;21.29;69.87
12781;BME280;6454;43.304;24.344;2023-05-20T07:45:51;100669.03;;;21.24;68.68
12781;BME280;6454;43.304;24.344;2023-05-20T07:48:18;100676.25;;;21.16;70.04
12781;BME280;6454;43.304;24.344;2023-05-20T07:50:45;100669.84;;;21.25;70.54
12781;BME280;6454;43.304;24.344;2023-05-20T07:53:12;100675.03;;;21.26;65.58
12781;BME280;6454;43.304;24.344;2023-05-20T07:55:39;100667.75;;;21.22;68.62
12781;BME280;6454;43.304;24.344;2023-05-20T07:58:07;100667.28;;;21.32;67.27
12781;BME280;6454;43.304;24.344;2023-05-20T08:00:34;100658.56;;;21.42;69.14
12781;BME280;6454;43.304;24.344;2023-05-20T08:03:01;100657.31;;;21.51;66.51
12781;BME280;6454;43.304;24.344;2023-05-20T08:05:28;100668.41;;;21.67;66.38
12781;BME280;6454;43.304;24.344;2023-05-20T08:07:55;100660.91;;;21.79;65.49
12781;BME280;6454;43.304;24.344;2023-05-20T08:10:22;100654.47;;;21.88;65.17
12781;BME280;6454;43.304;24.344;2023-05-20T08:12:48;100655.13;;;21.97;67.70
12781;BME280;6454;43.304;24.344;2023-05-20T08:15:17;100649.28;;;21.98;63.84
12781;BME280;6454;43.304;24.344;2023-05-20T08:17:43;100657.13;;;21.96;64.17
12781;BME280;6454;43.304;24.344;2023-05-20T08:20:11;100658.47;;;22.02;66.35
12781;BME280;6454;43.304;24.344;2023-05-20T08:22:38;100651.50;;;22.20;66.64
12781;BME280;6454;43.304;24.344;2023-05-20T08:25:07;100660.59;;;22.21;65.56
12781;BME280;6454;43.304;24.344;2023-05-20T08:27:34;100667.91;;;22.29;64.75
12781;BME280;6454;43.304;24.344;2023-05-20T08:30:01;100656.59;;;22.06;64.25
12781;BME280;6454;43.304;24.344;2023-05-20T08:32:30;100653.50;;;22.08;63.97
12781;BME280;6454;43.304;24.344;2023-05-20T08:34:57;100662.53;;;22.20;64.12
12781;BME280;6454;43.304;24.344;2023-05-20T08:37:26;100659.16;;;22.27;62.09
12781;BME280;6454;43.304;24.344;2023-05-20T08:39:52;100668.75;;;22.45;64.45
12781;BME280;6454;43.304;24.344;2023-05-20T08:42:21;100642.53;;;22.39;63.89
12781;BME280;6454;43.304;24.344;2023-05-20T08:44:49;100657.09;;;22.52;61.81
12781;BME280;6454;43.304;24.344;2023-05-20T08:47:17;100659.59;;;22.57;62.07
12781;BME280;6454;43.304;24.344;2023-05-20T08:49:47;100663.84;;;22.38;62.96
12781;BME280;6454;43.304;24.344;2023-05-20T08:52:15;100660.53;;;22.33;65.46
12781;BME280;6454;43.304;24.344;2023-05-20T08:54:45;100657.81;;;22.49;66.38
12781;BME280;6454;43.304;24.344;2023-05-20T08:57:12;100636.59;;;22.25;64.57
12781;BME280;6454;43.304;24.344;2023-05-20T08:59:41;100665.88;;;22.26;64.19
12781;BME280;6454;43.304;24.344;2023-05-20T09:02:09;100665.50;;;22.27;66.33
12781;BME280;6454;43.304;24.344;2023-05-20T09:04:35;100656.63;;;22.50;65.69
12781;BME280;6454;43.304;24.344;2023-05-20T09:07:04;100596.97;;;22.33;65.65
12781;BME280;6454;43.304;24.344;2023-05-20T09:09:32;100651.72;;;22.86;66.65
12781;BME280;6454;43.304;24.344;2023-05-20T09:11:59;100652.06;;;22.85;63.22
12781;BME280;6454;43.304;24.344;2023-05-20T09:14:27;100650.38;;;22.80;63.10
12781;BME280;6454;43.304;24.344;2023-05-20T09:16:54;100646.38;;;22.93;62.64
12781;BME280;6454;43.304;24.344;2023-05-20T09:19:21;100652.63;;;22.90;64.21
12781;BME280;6454;43.304;24.344;2023-05-20T09:21:48;100654.75;;;22.97;63.54
12781;BME280;6454;43.304;24.344;2023-05-20T09:24:19;100650.03;;;22.82;61.59
12781;BME280;6454;43.304;24.344;2023-05-20T09:26:46;100652.34;;;22.80;63.07
12781;BME280;6454;43.304;24.344;2023-05-20T09:29:13;100649.72;;;22.71;63.43
12781;BME280;6454;43.304;24.344;2023-05-20T09:31:40;100654.38;;;22.67;61.01
12781;BME280;6454;43.304;24.344;2023-05-20T09:34:07;100657.44;;;22.50;62.44
12781;BME280;6454;43.304;24.344;2023-05-20T09:36:34;100657.31;;;22.31;63.69
12781;BME280;6454;43.304;24.344;2023-05-20T09:39:02;100653.88;;;22.22;64.31
12781;BME280;6454;43.304;24.344;2023-05-20T09:41:33;100652.06;;;22.14;63.83
12781;BME280;6454;43.304;24.344;2023-05-20T09:44:01;100656.84;;;22.29;64.52
12781;BME280;6454;43.304;24.344;2023-05-20T09:46:28;100665.94;;;22.57;62.53
12781;BME280;6454;43.304;24.344;2023-05-20T09:48:57;100650.94;;;22.86;62.92
12781;BME280;6454;43.304;24.344;2023-05-20T09:51:25;100645.19;;;22.79;60.60
12781;BME280;6454;43.304;24.344;2023-05-20T09:53:54;100643.75;;;22.69;59.90
12781;BME280;6454;43.304;24.344;2023-05-20T09:56:23;100639.84;;;22.70;58.12
12781;BME280;6454;43.304;24.344;2023-05-20T09:58:52;100629.38;;;22.64;60.61
12781;BME280;6454;43.304;24.344;2023-05-20T10:01:22;100559.75;;;22.15;59.55
12781;BME280;6454;43.304;24.344;2023-05-20T10:03:49;100634.88;;;22.48;61.40
12781;BME280;6454;43.304;24.344;2023-05-20T10:06:30;100639.75;;;22.39;61.07
12781;BME280;6454;43.304;24.344;2023-05-20T10:09:10;100641.88;;;22.30;61.59
12781;BME280;6454;43.304;24.344;2023-05-20T10:11:47;100635.00;;;22.24;62.50
12781;BME280;6454;43.304;24.344;2023-05-20T10:14:31;100629.28;;;22.17;64.70
12781;BME280;6454;43.304;24.344;2023-05-20T10:17:06;100630.13;;;22.05;64.10
12781;BME280;6454;43.304;24.344;2023-05-20T10:19:36;100616.56;;;22.00;64.66
12781;BME280;6454;43.304;24.344;2023-05-20T10:22:06;100613.59;;;21.93;64.88
12781;BME280;6454;43.304;24.344;2023-05-20T10:24:34;100611.19;;;21.92;64.00
12781;BME280;6454;43.304;24.344;2023-05-20T10:27:03;100582.13;;;21.70;65.02
12781;BME280;6454;43.304;24.344;2023-05-20T10:29:42;100618.94;;;21.86;64.53
12781;BME280;6454;43.304;24.344;2023-05-20T10:32:09;100608.00;;;21.77;65.40
12781;BME280;6454;43.304;24.344;2023-05-20T10:34:44;100611.00;;;21.72;65.37
12781;BME280;6454;43.304;24.344;2023-05-20T10:37:22;100597.78;;;21.66;64.61
12781;BME280;6454;43.304;24.344;2023-05-20T10:39:48;100593.06;;;21.66;63.89
12781;BME280;6454;43.304;24.344;2023-05-20T10:42:15;100594.78;;;21.59;64.85
12781;BME280;6454;43.304;24.344;2023-05-20T10:44:44;100577.94;;;21.48;64.34
12781;BME280;6454;43.304;24.344;2023-05-20T10:47:11;100581.91;;;21.63;63.85
12781;BME280;6454;43.304;24.344;2023-05-20T10:49:40;100575.38;;;21.55;64.22
12781;BME280;6454;43.304;24.344;2023-05-20T10:52:10;100572.69;;;21.71;63.97
12781;BME280;6454;43.304;24.344;2023-05-20T10:54:42;100535.13;;;21.54;62.30
12781;BME280;6454;43.304;24.344;2023-05-20T10:57:10;100568.63;;;21.80;63.26
12781;BME280;6454;43.304;24.344;2023-05-20T10:59:37;100553.13;;;21.76;61.31
12781;BME280;6454;43.304;24.344;2023-05-20T11:02:05;100559.44;;;21.89;59.96
12781;BME280;6454;43.304;24.344;2023-05-20T11:04:33;100559.94;;;21.94;62.03
12781;BME280;6454;43.304;24.344;2023-05-20T11:07:00;100557.31;;;21.98;61.02
12781;BME280;6454;43.304;24.344;2023-05-20T11:09:27;100553.47;;;22.02;60.04
12781;BME280;6454;43.304;24.344;2023-05-20T11:11:55;100551.72;;;22.10;61.23
12781;BME280;6454;43.304;24.344;2023-05-20T11:14:22;100560.44;;;22.12;60.76
12781;BME280;6454;43.304;24.344;2023-05-20T11:16:52;100549.31;;;22.24;61.03
12781;BME280;6454;43.304;24.344;2023-05-20T11:19:22;100556.56;;;22.44;61.86
12781;BME280;6454;43.304;24.344;2023-05-20T11:21:49;100556.19;;;22.61;61.16
12781;BME280;6454;43.304;24.344;2023-05-20T11:24:23;100551.06;;;22.75;60.01
12781;BME280;6454;43.304;24.344;2023-05-20T11:26:51;100538.47;;;22.93;57.96
12781;BME280;6454;43.304;24.344;2023-05-20T11:29:18;100541.03;;;23.02;57.07
12781;BME280;6454;43.304;24.344;2023-05-20T11:31:47;100537.28;;;23.10;59.65
12781;BME280;6454;43.304;24.344;2023-05-20T11:34:15;100535.47;;;23.18;58.50
12781;BME280;6454;43.304;24.344;2023-05-20T11:36:43;100532.88;;;23.09;57.82
12781;BME280;6454;43.304;24.344;2023-05-20T11:39:10;100531.09;;;23.17;58.77
12781;BME280;6454;43.304;24.344;2023-05-20T11:41:37;100519.72;;;23.22;60.54
12781;BME280;6454;43.304;24.344;2023-05-20T11:44:08;100525.56;;;23.17;56.95
12781;BME280;6454;43.304;24.344;2023-05-20T11:46:40;100516.06;;;23.33;59.14
12781;BME280;6454;43.304;24.344;2023-05-20T11:49:07;100520.66;;;23.45;58.06
12781;BME280;6454;43.304;24.344;2023-05-20T11:51:34;100516.59;;;23.58;59.22
12781;BME280;6454;43.304;24.344;2023-05-20T11:54:03;100521.34;;;23.57;58.91
12781;BME280;6454;43.304;24.344;2023-05-20T11:56:30;100512.94;;;23.54;56.62
12781;BME280;6454;43.304;24.344;2023-05-20T11:58:58;100513.44;;;23.59;57.45
12781;BME280;6454;43.304;24.344;2023-05-20T12:01:25;100508.59;;;23.53;57.83
12781;BME280;6454;43.304;24.344;2023-05-20T12:03:53;100515.72;;;23.54;54.40
12781;BME280;6454;43.304;24.344;2023-05-20T12:06:20;100510.31;;;23.61;56.21
12781;BME280;6454;43.304;24.344;2023-05-20T12:08:47;100503.09;;;23.56;55.25
12781;BME280;6454;43.304;24.344;2023-05-20T12:11:15;100497.81;;;23.48;55.77
12781;BME280;6454;43.304;24.344;2023-05-20T12:13:42;100494.56;;;23.46;55.70
12781;BME280;6454;43.304;24.344;2023-05-20T12:16:09;100489.78;;;23.43;56.08
12781;BME280;6454;43.304;24.344;2023-05-20T12:18:36;100482.47;;;23.35;53.12
12781;BME280;6454;43.304;24.344;2023-05-20T12:21:03;100480.50;;;23.35;52.31
12781;BME280;6454;43.304;24.344;2023-05-20T12:23:29;100474.53;;;23.33;52.40
12781;BME280;6454;43.304;24.344;2023-05-20T12:25:58;100469.88;;;23.37;54.78
12781;BME280;6454;43.304;24.344;2023-05-20T12:28:26;100471.34;;;23.50;53.59
12781;BME280;6454;43.304;24.344;2023-05-20T12:30:53;100464.75;;;23.58;52.78
12781;BME280;6454;43.304;24.344;2023-05-20T12:33:20;100468.47;;;23.66;53.93
12781;BME280;6454;43.304;24.344;2023-05-20T12:35:47;100458.28;;;23.70;55.84
12781;BME280;6454;43.304;24.344;2023-05-20T12:38:14;100451.41;;;23.83;55.86
12781;BME280;6454;43.304;24.344;2023-05-20T12:40:40;100446.16;;;24.01;55.41
12781;BME280;6454;43.304;24.344;2023-05-20T12:43:07;100442.44;;;24.12;55.60
12781;BME280;6454;43.304;24.344;2023-05-20T12:45:35;100443.00;;;24.21;53.41
12781;BME280;6454;43.304;24.344;2023-05-20T12:48:03;100431.97;;;24.25;52.98
12781;BME280;6454;43.304;24.344;2023-05-20T12:50:31;100438.16;;;24.41;55.09